createdAt,value
2023-05-19T00:02:26.210Z,5.40
2023-05-19T00:07:31.375Z,10.65
2023-05-19T00:12:33.322Z,5.32
2023-05-19T00:17:35.154Z,9.10
2023-05-19T00:22:37.109Z,3.85
2023-05-19T00:27:38.801Z,3.70
2023-05-19T00:32:40.751Z,3.35
2023-05-19T00:37:42.473Z,3.38
2023-05-19T00:42:44.141Z,7.47
2023-05-19T00:47:45.947Z,5.60
2023-05-19T00:52:47.690Z,5.93
2023-05-19T00:57:49.919Z,6.18
2023-05-19T01:02:51.828Z,5.85
2023-05-19T01:07:55.610Z,5.22
2023-05-19T01:12:57.432Z,5.80
2023-05-19T01:18:08.286Z,6.82
2023-05-19T01:23:21.558Z,4.53
2023-05-19T01:28:49.147Z,3.22
2023-05-19T01:33:53.263Z,6.53
2023-05-19T01:38:58.552Z,7.32
2023-05-19T01:44:00.769Z,4.95
2023-05-19T01:49:03.122Z,4.82
2023-05-19T01:54:04.833Z,6.15
2023-05-19T01:59:23.949Z,5.88
2023-05-19T02:04:51.182Z,4.22
2023-05-19T02:10:30.974Z,3.65
2023-05-19T02:15:42.319Z,4.20
2023-05-19T02:20:44.152Z,5.75
2023-05-19T02:25:45.883Z,6.68
2023-05-19T02:30:47.583Z,9.38
2023-05-19T02:35:49.303Z,7.03
2023-05-19T02:40:52.402Z,7.38
2023-05-19T02:45:54.266Z,5.25
2023-05-19T02:50:55.988Z,7.85
2023-05-19T02:55:57.671Z,9.52
2023-05-19T03:00:59.328Z,10.07
2023-05-19T03:06:01.963Z,7.95
2023-05-19T03:11:03.862Z,7.10
2023-05-19T03:16:08.113Z,8.40
2023-05-19T03:21:10.201Z,5.68
2023-05-19T03:26:11.886Z,11.40
2023-05-19T03:31:13.644Z,9.27
2023-05-19T03:36:16.318Z,8.40
2023-05-19T03:41:18.071Z,7.95
2023-05-19T03:46:19.980Z,10.98
2023-05-19T03:51:21.677Z,8.23
2023-05-19T03:56:27.785Z,10.63
2023-05-19T04:01:29.603Z,10.68
2023-05-19T04:06:33.968Z,6.43
2023-05-19T04:11:36.655Z,6.63
2023-05-19T04:16:38.518Z,7.85
2023-05-19T04:21:40.192Z,7.75
2023-05-19T04:26:45.951Z,8.63
2023-05-19T04:31:49.114Z,6.53
2023-05-19T04:36:53.249Z,10.50
2023-05-19T04:41:56.729Z,11.18
2023-05-19T04:47:00.234Z,6.05
2023-05-19T04:52:02.079Z,12.98
2023-05-19T04:57:05.843Z,8.10
2023-05-19T05:02:11.225Z,7.82
2023-05-19T05:07:12.989Z,6.32
2023-05-19T05:12:15.589Z,6.32
2023-05-19T05:17:17.734Z,8.52
2023-05-19T05:22:19.890Z,7.55
2023-05-19T05:27:21.662Z,5.95
2023-05-19T05:32:23.635Z,5.97
2023-05-19T05:37:25.628Z,8.80
2023-05-19T05:42:29.699Z,9.23
2023-05-19T05:47:32.579Z,4.22
2023-05-19T05:52:36.641Z,6.18
2023-05-19T05:57:41.939Z,5.55
2023-05-19T06:02:47.369Z,6.80
2023-05-19T06:07:50.096Z,4.10
2023-05-19T06:12:56.492Z,6.47
2023-05-19T06:18:00.236Z,4.40
2023-05-19T06:23:02.932Z,9.77
2023-05-19T06:28:04.996Z,6.20
2023-05-19T06:33:07.322Z,4.65
2023-05-19T06:38:09.224Z,5.57
2023-05-19T06:43:11.461Z,4.93
2023-05-19T06:48:35.157Z,4.13
2023-05-19T06:53:38.212Z,3.63
2023-05-19T06:58:43.757Z,6.43
2023-05-19T07:03:46.923Z,5.00
2023-05-19T07:08:50.113Z,3.50
2023-05-19T07:13:52.819Z,3.53
2023-05-19T07:19:00.522Z,6.18
2023-05-19T07:24:02.278Z,2.88
2023-05-19T07:29:04.310Z,3.67
2023-05-19T07:34:06.080Z,7.43
2023-05-19T07:39:07.828Z,5.40
2023-05-19T07:44:10.449Z,4.38
2023-05-19T07:49:12.132Z,4.38
2023-05-19T07:54:13.779Z,4.20
2023-05-19T07:59:16.086Z,6.75
2023-05-19T08:04:17.933Z,6.55
2023-05-19T08:09:20.217Z,3.60
2023-05-19T08:14:22.930Z,5.65
2023-05-19T08:19:24.755Z,9.70
2023-05-19T08:24:26.669Z,4.22
2023-05-19T08:29:28.334Z,3.92
2023-05-19T08:34:29.987Z,2.67
2023-05-19T08:39:34.226Z,4.13
2023-05-19T08:44:37.623Z,3.33
2023-05-19T08:49:50.592Z,3.63
2023-05-19T08:55:21.849Z,2.28
2023-05-19T09:00:23.964Z,2.92
2023-05-19T09:05:25.746Z,2.20
2023-05-19T09:10:29.120Z,4.32
2023-05-19T09:15:31.969Z,3.75
2023-05-19T09:20:37.289Z,3.42
2023-05-19T09:25:50.276Z,4.45
2023-05-19T09:31:01.540Z,3.70
2023-05-19T09:36:06.150Z,4.97
2023-05-19T09:41:09.152Z,4.40
2023-05-19T09:46:14.770Z,5.88
2023-05-19T09:51:17.584Z,3.08
2023-05-19T09:56:23.813Z,3.20
2023-05-19T10:01:26.691Z,5.43
2023-05-19T10:06:28.702Z,3.65
2023-05-19T10:11:30.823Z,4.53
2023-05-19T10:16:33.798Z,3.03
2023-05-19T10:21:35.495Z,3.47
2023-05-19T10:26:39.072Z,5.25
2023-05-19T10:31:41.447Z,7.28
2023-05-19T10:36:46.468Z,5.22
2023-05-19T10:42:23.926Z,5.32
2023-05-19T10:47:26.323Z,5.10
2023-05-19T10:52:30.854Z,4.47
2023-05-19T10:57:33.346Z,3.65
2023-05-19T11:02:42.348Z,5.13
2023-05-19T11:07:55.338Z,2.70
2023-05-19T11:12:58.415Z,3.40
2023-05-19T11:18:01.951Z,5.53
2023-05-19T11:23:03.631Z,6.20
2023-05-19T11:28:05.888Z,4.72
2023-05-19T11:33:08.235Z,4.45
2023-05-19T11:38:11.241Z,5.22
2023-05-19T11:43:12.904Z,4.60
2023-05-19T11:48:16.104Z,1.95
2023-05-19T11:53:19.847Z,3.20
2023-05-19T11:58:27.849Z,2.75
2023-05-19T12:03:29.885Z,3.75
2023-05-19T12:08:31.810Z,2.67
2023-05-19T12:13:33.659Z,2.78
2023-05-19T12:18:39.224Z,3.17
2023-05-19T12:23:41.839Z,2.83
2023-05-19T12:28:45.631Z,7.03
2023-05-19T12:33:52.618Z,3.40
2023-05-19T12:38:55.612Z,2.75
2023-05-19T12:43:57.256Z,6.22
2023-05-19T12:49:01.008Z,7.32
2023-05-19T12:54:04.676Z,4.65
2023-05-19T12:59:06.401Z,5.07
2023-05-19T13:04:08.340Z,5.07
2023-05-19T13:09:10.879Z,9.10
2023-05-19T13:14:12.638Z,7.30
2023-05-19T13:19:25.536Z,6.30
2023-05-19T13:24:27.895Z,7.43
2023-05-19T13:29:29.598Z,3.70
2023-05-19T13:34:31.350Z,2.85
2023-05-19T13:39:33.438Z,9.52
2023-05-19T13:44:35.176Z,6.07
2023-05-19T13:49:36.872Z,5.40
2023-05-19T13:54:38.543Z,6.65
2023-05-19T13:59:52.902Z,6.63
2023-05-19T14:05:02.798Z,8.60
2023-05-19T14:10:07.041Z,2.83
2023-05-19T14:15:11.451Z,5.80
2023-05-19T14:20:13.363Z,4.30
2023-05-19T14:25:15.086Z,5.45
2023-05-19T14:30:16.744Z,7.55
2023-05-19T14:35:18.444Z,6.07
2023-05-19T14:40:20.368Z,6.20
2023-05-19T14:45:22.181Z,3.60
2023-05-19T14:50:23.897Z,5.22
2023-05-19T14:55:25.679Z,4.40
2023-05-19T15:00:27.384Z,10.80
2023-05-19T15:05:29.054Z,4.85
2023-05-19T15:10:31.084Z,5.72
2023-05-19T15:15:32.876Z,5.55
2023-05-19T15:20:34.922Z,5.47
2023-05-19T15:25:37.279Z,6.45
2023-05-19T15:30:39.962Z,6.07
2023-05-19T15:35:41.959Z,5.90
2023-05-19T15:40:43.664Z,7.30
2023-05-19T15:45:45.395Z,8.85
2023-05-19T15:50:47.155Z,6.03
2023-05-19T15:55:48.842Z,6.15
2023-05-19T16:00:50.657Z,5.53
2023-05-19T16:05:53.194Z,5.32
2023-05-19T16:10:55.297Z,7.35
2023-05-19T16:15:56.976Z,7.05
2023-05-19T16:20:58.636Z,7.07
2023-05-19T16:26:00.457Z,9.57
2023-05-19T16:31:02.118Z,7.03
2023-05-19T16:36:03.999Z,7.28
2023-05-19T16:41:06.883Z,10.10
2023-05-19T16:46:09.951Z,5.47
2023-05-19T16:51:11.722Z,7.47
2023-05-19T16:56:13.380Z,7.40
2023-05-19T17:01:16.230Z,5.65
2023-05-19T17:06:17.887Z,6.78
2023-05-19T17:11:19.537Z,4.32
2023-05-19T17:16:21.422Z,7.50
2023-05-19T17:21:23.087Z,5.88
2023-05-19T17:26:24.749Z,5.95
2023-05-19T17:31:26.449Z,5.63
2023-05-19T17:36:28.429Z,4.20
2023-05-19T17:41:30.251Z,13.77
2023-05-19T17:46:34.728Z,6.68
2023-05-19T17:51:36.961Z,5.57
2023-05-19T17:56:42.186Z,5.63
2023-05-19T18:01:44.350Z,5.28
2023-05-19T18:06:46.615Z,7.85
2023-05-19T18:11:48.338Z,10.38
2023-05-19T18:16:50.131Z,4.03
2023-05-19T18:21:51.860Z,4.20
2023-05-19T18:26:53.506Z,3.90
2023-05-19T18:31:55.332Z,4.72
2023-05-19T18:36:57.025Z,8.00
2023-05-19T18:41:58.937Z,6.35
2023-05-19T18:47:01.137Z,5.65
2023-05-19T18:52:02.867Z,5.80
2023-05-19T18:57:05.103Z,7.03
2023-05-19T19:02:06.926Z,9.23
2023-05-19T19:07:08.614Z,6.25
2023-05-19T19:12:10.829Z,11.30
2023-05-19T19:17:12.749Z,12.30
2023-05-19T19:22:14.528Z,5.35
2023-05-19T19:27:20.931Z,5.95
2023-05-19T19:32:23.068Z,8.45
2023-05-19T19:37:24.795Z,8.82
2023-05-19T19:42:26.440Z,8.63
2023-05-19T19:47:28.128Z,17.80
2023-05-19T19:52:29.811Z,9.55
2023-05-19T19:57:34.140Z,8.27
2023-05-19T20:02:41.045Z,9.43
2023-05-19T20:07:47.428Z,11.02
2023-05-19T20:12:50.643Z,8.65
2023-05-19T20:17:52.396Z,9.35
2023-05-19T20:22:54.177Z,8.57
2023-05-19T20:27:55.822Z,8.23
2023-05-19T20:32:57.716Z,12.00
2023-05-19T20:37:59.510Z,11.02
2023-05-19T20:43:01.245Z,11.65
2023-05-19T20:48:03.817Z,12.20
2023-05-19T20:53:07.396Z,11.07
2023-05-19T20:58:09.136Z,13.15
2023-05-19T21:03:11.719Z,14.18
2023-05-19T21:08:13.556Z,10.50
2023-05-19T21:13:15.219Z,10.85
2023-05-19T21:18:16.902Z,11.65
2023-05-19T21:23:18.614Z,12.93
2023-05-19T21:28:20.332Z,13.25
2023-05-19T21:33:23.125Z,11.93
2023-05-19T21:38:25.009Z,11.52
2023-05-19T21:43:26.828Z,15.52
2023-05-19T21:48:28.484Z,12.63
2023-05-19T21:53:31.466Z,15.52
2023-05-19T21:58:34.470Z,10.07
2023-05-19T22:03:36.250Z,12.07
2023-05-19T22:08:37.958Z,12.70
2023-05-19T22:13:41.239Z,13.43
2023-05-19T22:18:43.348Z,13.20
2023-05-19T22:23:45.047Z,13.20
2023-05-19T22:28:46.685Z,12.80
2023-05-19T22:33:48.380Z,10.57
2023-05-19T22:38:50.129Z,15.05
2023-05-19T22:43:51.786Z,11.55
2023-05-19T22:48:53.426Z,12.90
2023-05-19T22:53:55.103Z,10.27
2023-05-19T22:58:56.771Z,15.45
2023-05-19T23:03:58.482Z,12.10
2023-05-19T23:09:04.482Z,12.32
2023-05-19T23:14:06.197Z,12.88
2023-05-19T23:19:07.951Z,12.25
2023-05-19T23:24:09.616Z,13.88
2023-05-19T23:29:13.078Z,13.02
2023-05-19T23:34:14.745Z,16.83
2023-05-19T23:39:16.397Z,17.65
2023-05-19T23:44:18.602Z,14.77
2023-05-19T23:49:20.450Z,14.52
2023-05-19T23:54:22.146Z,13.60
2023-05-19T23:59:23.792Z,18.67
